Time;durP1;ratioP1;P1;durP2;ratioP2;P2;SDS_P1;SDS_P2;PMS_P1;PMS_P2;Temp;Humidity;BMP_temperature;BMP_pressure;BME280_temperature;BME280_humidity;BME280_pressure;Samples;Min_cycle;Max_cycle;Signal;HPM_P1;HPM_P2
2020/12/22 00:01:44;;;;;;;24.20;11.25;;;;;;;-0.01;60.78;102227.42;1742825;80;21172;-56
2020/12/22 00:04:12;;;;;;;20.10;11.80;;;;;;;0.01;60.76;102230.00;1747875;81;22059;-57
2020/12/22 00:06:40;;;;;;;16.55;9.38;;;;;;;0.01;60.50;102230.00;1747473;80;21044;-55
2020/12/22 00:09:07;;;;;;;18.20;10.88;;;;;;;-0.06;60.45;102238.68;1748750;81;21143;-55
2020/12/22 00:11:36;;;;;;;17.07;9.08;;;;;;;-0.09;60.65;102233.52;1747270;80;21564;-55
2020/12/22 00:14:03;;;;;;;25.45;10.72;;;;;;;-0.07;60.86;102238.25;1738637;80;21556;-55
2020/12/22 00:16:36;;;;;;;22.48;9.85;;;;;;;-0.03;60.77;102239.52;1794140;77;21199;-57
2020/12/22 00:19:04;;;;;;;17.57;9.53;;;;;;;0.02;60.86;102240.80;1802253;79;21681;-55
2020/12/22 00:21:33;;;;;;;17.40;9.98;;;;;;;0.06;60.94;102233.86;1796348;77;21204;-56
2020/12/22 00:24:02;;;;;;;18.62;11.12;;;;;;;0.09;61.15;102239.02;1809649;77;21204;-55
2020/12/22 00:26:33;;;;;;;21.70;12.40;;;;;;;0.16;61.14;102236.81;1803514;77;21543;-55
2020/12/22 00:29:00;;;;;;;24.10;13.43;;;;;;;0.23;60.86;102234.59;1795135;77;22379;-55
2020/12/22 00:31:28;;;;;;;25.15;13.78;;;;;;;0.28;60.62;102233.27;1809588;77;21187;-55
2020/12/22 00:33:56;;;;;;;24.05;12.63;;;;;;;0.32;60.53;102229.77;1798838;77;21519;-54
2020/12/22 00:36:26;;;;;;;34.53;12.98;;;;;;;0.33;60.44;102234.09;1812581;77;21594;-55
2020/12/22 00:38:55;;;;;;;31.50;13.68;;;;;;;0.34;60.25;102227.61;1816730;77;21108;-55
2020/12/22 00:41:22;;;;;;;31.37;15.38;;;;;;;0.38;60.32;102229.73;1811401;77;22064;-54
2020/12/22 00:43:50;;;;;;;27.27;13.80;;;;;;;0.41;60.24;102229.72;1801327;77;21623;-55
2020/12/22 00:46:18;;;;;;;40.28;16.25;;;;;;;0.47;60.16;102229.68;1802167;77;21148;-55
2020/12/22 00:48:47;;;;;;;35.70;17.10;;;;;;;0.51;60.23;102230.51;1772699;79;21191;-55
2020/12/22 00:51:21;;;;;;;33.98;12.93;;;;;;;0.57;60.13;102224.41;1803038;77;21144;-55
2020/12/22 00:53:50;;;;;;;28.17;15.03;;;;;;;0.60;60.00;102225.67;1755614;80;21377;-55
2020/12/22 00:56:18;;;;;;;26.00;13.75;;;;;;;0.64;59.92;102220.46;1801998;77;21096;-55
2020/12/22 00:58:48;;;;;;;27.58;15.25;;;;;;;0.66;59.91;102217.86;1763889;80;21154;-55
2020/12/22 01:01:16;;;;;;;24.43;14.87;;;;;;;0.68;59.64;102219.55;1806825;77;21179;-55
2020/12/22 01:03:45;;;;;;;26.00;14.60;;;;;;;0.68;59.69;102222.58;1753666;80;21572;-55
2020/12/22 01:06:15;;;;;;;29.65;14.58;;;;;;;0.69;59.56;102219.09;1807957;77;22235;-55
2020/12/22 01:08:44;;;;;;;26.27;14.33;;;;;;;0.64;59.38;102214.40;1762601;80;21131;-55
2020/12/22 01:11:14;;;;;;;25.88;14.23;;;;;;;0.57;59.31;102207.56;1777396;80;21158;-55
2020/12/22 01:13:41;;;;;;;22.02;12.33;;;;;;;0.53;59.35;102211.92;1802739;77;21800;-55
2020/12/22 01:16:09;;;;;;;21.20;12.50;;;;;;;0.46;59.26;102212.41;1820834;77;21615;-55
2020/12/22 01:18:38;;;;;;;17.07;9.83;;;;;;;0.40;59.48;102211.16;1770887;80;21202;-58
2020/12/22 01:21:06;;;;;;;21.60;11.75;;;;;;;0.35;59.39;102214.22;1805572;77;21396;-56
2020/12/22 01:23:35;;;;;;;22.40;10.82;;;;;;;0.34;59.59;102208.64;1782663;78;21767;-56
2020/12/22 01:26:04;;;;;;;22.00;11.63;;;;;;;0.31;59.73;102209.95;1783846;78;21191;-55
2020/12/22 01:28:32;;;;;;;24.23;11.85;;;;;;;0.35;59.80;102207.33;1797621;77;22246;-55
2020/12/22 01:30:59;;;;;;;17.92;10.08;;;;;;;0.34;59.89;102196.98;1789339;78;22716;-55
2020/12/22 01:33:27;;;;;;;21.25;11.65;;;;;;;0.37;59.97;102202.14;1794175;79;21481;-55
2020/12/22 01:35:54;;;;;;;23.00;11.68;;;;;;;0.39;59.92;102203.39;1767722;80;21166;-55
2020/12/22 01:38:21;;;;;;;20.25;10.82;;;;;;;0.39;59.95;102202.98;1766693;80;21856;-55
2020/12/22 01:40:49;;;;;;;20.65;10.75;;;;;;;0.40;60.08;102204.68;1801953;77;21591;-55
2020/12/22 01:43:17;;;;;;;21.90;11.78;;;;;;;0.41;59.88;102199.94;1760527;80;22365;-55
2020/12/22 01:45:44;;;;;;;18.42;10.45;;;;;;;0.41;59.92;102197.79;1809249;77;21556;-56
2020/12/22 01:48:12;;;;;;;21.30;11.22;;;;;;;0.40;60.09;102199.50;1798719;77;21147;-56
2020/12/22 01:50:40;;;;;;;21.77;10.43;;;;;;;0.43;60.24;102198.63;1807748;77;21607;-56
2020/12/22 01:53:08;;;;;;;17.00;10.43;;;;;;;0.41;60.45;102192.16;1796565;77;21326;-56
2020/12/22 01:55:42;;;;;;;24.35;11.80;;;;;;;0.46;60.30;102194.72;1812180;77;21867;-56
2020/12/22 01:58:09;;;;;;;24.70;11.25;;;;;;;0.48;60.30;102191.67;1803317;77;21153;-56
2020/12/22 02:00:37;;;;;;;21.42;10.25;;;;;;;0.50;60.23;102188.19;1799594;77;21124;-56
2020/12/22 02:03:06;;;;;;;28.90;10.23;;;;;;;0.51;60.29;102184.73;1800734;79;21097;-56
2020/12/22 02:05:38;;;;;;;18.45;9.98;;;;;;;0.49;60.32;102187.78;1793311;79;21200;-55
2020/12/22 02:08:06;;;;;;;17.07;8.55;;;;;;;0.50;60.36;102188.19;1786081;79;21426;-55
2020/12/22 02:10:49;;;;;;;20.17;9.45;;;;;;;0.48;60.25;102186.05;1793468;79;21443;-55
2020/12/22 02:13:17;;;;;;;20.08;9.03;;;;;;;0.48;60.13;102184.75;1791988;77;21187;-55
2020/12/22 02:15:46;;;;;;;17.67;8.78;;;;;;;0.46;60.16;102185.66;1803521;77;21733;-56
2020/12/22 02:18:13;;;;;;;22.13;8.75;;;;;;;0.43;60.20;102184.38;1802627;77;21133;-55
2020/12/22 02:20:41;;;;;;;15.25;8.90;;;;;;;0.43;60.18;102180.05;1757552;80;21233;-55
2020/12/22 02:23:11;;;;;;;28.80;10.13;;;;;;;0.43;60.28;102177.46;1736024;77;21128;-55
2020/12/22 02:25:47;;;;;;;15.03;7.75;;;;;;;0.46;60.24;102176.15;1763829;80;21194;-55
2020/12/22 02:28:16;;;;;;;20.23;9.43;;;;;;;0.50;60.20;102174.38;1807726;77;21086;-55
2020/12/22 02:30:44;;;;;;;22.05;8.75;;;;;;;0.48;60.12;102169.22;1764119;80;21201;-55
2020/12/22 02:33:11;;;;;;;15.78;7.78;;;;;;;0.45;60.24;102164.06;1755115;80;22662;-56
2020/12/22 02:35:40;;;;;;;13.70;7.40;;;;;;;0.47;60.29;102175.70;1801829;77;21167;-55
2020/12/22 02:38:08;;;;;;;14.78;7.12;;;;;;;0.44;60.14;102172.72;1757462;80;21609;-56
2020/12/22 02:40:36;;;;;;;16.90;8.33;;;;;;;0.42;60.17;102180.95;1807011;77;21156;-55
2020/12/22 02:43:10;;;;;;;15.95;8.73;;;;;;;0.39;60.33;102181.38;1767083;80;21561;-55
2020/12/22 02:45:39;;;;;;;17.00;9.48;;;;;;;0.32;60.34;102181.45;1796710;77;22339;-55
2020/12/22 02:48:06;;;;;;;21.30;11.03;;;;;;;0.28;60.42;102176.31;1753933;80;21621;-55
2020/12/22 02:50:34;;;;;;;18.90;10.45;;;;;;;0.23;60.65;102179.37;1813633;77;21187;-55
2020/12/22 02:53:02;;;;;;;20.57;10.18;;;;;;;0.21;60.86;102181.12;1795245;77;21196;-56
2020/12/22 02:55:31;;;;;;;15.13;8.15;;;;;;;0.22;60.76;102186.70;1750414;80;21119;-56
2020/12/22 02:58:00;;;;;;;16.27;10.23;;;;;;;0.20;60.81;102178.95;1780229;78;22296;-56
2020/12/22 03:00:28;;;;;;;21.62;10.78;;;;;;;0.20;60.86;102185.42;1771931;80;21184;-56
2020/12/22 03:02:55;;;;;;;21.77;12.95;;;;;;;0.19;60.97;102182.42;1815128;77;21084;-55
2020/12/22 03:05:23;;;;;;;20.77;12.63;;;;;;;0.21;60.89;102189.73;1751291;80;21165;-55
2020/12/22 03:07:51;;;;;;;20.05;11.05;;;;;;;0.26;61.06;102187.13;1786700;78;21118;-56
2020/12/22 03:10:19;;;;;;;16.60;11.38;;;;;;;0.27;61.02;102179.76;1805938;77;21502;-54
2020/12/22 03:12:47;;;;;;;22.82;12.20;;;;;;;0.25;60.86;102177.62;1769559;80;21221;-55
2020/12/22 03:15:15;;;;;;;24.67;12.85;;;;;;;0.22;61.08;102180.23;1805265;77;21160;-56
2020/12/22 03:17:43;;;;;;;25.55;12.98;;;;;;;0.25;61.15;102172.44;1764772;80;21158;-56
2020/12/22 03:20:12;;;;;;;19.40;11.48;;;;;;;0.26;61.15;102175.47;1768099;80;21174;-56
2020/12/22 03:22:42;;;;;;;21.20;11.08;;;;;;;0.30;60.98;102169.37;1804251;77;21191;-56
2020/12/22 03:25:12;;;;;;;21.40;11.45;;;;;;;0.27;60.87;102170.70;1756573;80;21211;-56
2020/12/22 03:27:39;;;;;;;21.40;11.75;;;;;;;0.21;60.91;102159.97;1803239;77;21167;-56
2020/12/22 03:30:13;;;;;;;19.00;10.75;;;;;;;0.22;61.00;102160.81;1753126;80;21201;-56
2020/12/22 03:32:41;;;;;;;19.70;11.45;;;;;;;0.17;61.20;102160.43;1803037;77;21113;-55
2020/12/22 03:35:11;;;;;;;17.55;9.78;;;;;;;0.18;61.32;102156.10;1755754;80;21189;-56
2020/12/22 03:37:38;;;;;;;18.75;9.33;;;;;;;0.16;61.46;102157.85;1764131;80;21690;-56
2020/12/22 03:40:08;;;;;;;20.52;10.20;;;;;;;0.14;61.57;102154.42;1805098;77;21093;-56
2020/12/22 03:42:36;;;;;;;14.58;8.85;;;;;;;0.12;61.71;102157.02;1804816;77;21188;-57
2020/12/22 03:45:05;;;;;;;15.60;8.98;;;;;;;0.12;61.59;102157.02;1809124;77;21104;-56
2020/12/22 03:47:33;;;;;;;17.35;8.93;;;;;;;0.12;61.71;102161.34;1801317;77;22238;-55
2020/12/22 03:50:03;;;;;;;13.30;7.65;;;;;;;0.14;61.85;102162.19;1788717;79;22308;-55
2020/12/22 03:52:31;;;;;;;11.90;7.35;;;;;;;0.16;61.83;102154.81;1797154;79;21172;-55
2020/12/22 03:54:58;;;;;;;12.18;7.53;;;;;;;0.16;61.83;102151.38;1795540;79;21172;-56
2020/12/22 03:57:26;;;;;;;14.58;8.00;;;;;;;0.17;61.92;102152.66;1796554;79;21191;-56
2020/12/22 03:59:54;;;;;;;15.00;7.87;;;;;;;0.20;61.88;102151.77;1790813;79;21640;-56
2020/12/22 04:02:22;;;;;;;12.35;6.78;;;;;;;0.20;61.90;102147.03;1789964;79;21174;-56
2020/12/22 04:04:49;;;;;;;11.68;6.00;;;;;;;0.24;61.86;102140.97;1789343;79;21164;-56
2020/12/22 04:07:17;;;;;;;12.68;5.83;;;;;;;0.28;61.80;102145.23;1794923;79;21187;-55
2020/12/22 04:09:47;;;;;;;10.98;6.00;;;;;;;0.29;61.88;102139.20;1788934;79;21213;-55
2020/12/22 04:12:14;;;;;;;10.82;6.03;;;;;;;0.34;61.76;102137.42;1791378;79;21260;-56
2020/12/22 04:14:42;;;;;;;8.90;4.58;;;;;;;0.38;61.86;102140.84;1790775;79;21128;-56
2020/12/22 04:17:10;;;;;;;7.15;4.17;;;;;;;0.36;61.46;102136.97;1788510;79;22506;-58
2020/12/22 04:19:38;;;;;;;7.22;3.27;;;;;;;0.27;61.35;102135.73;1791946;79;22310;-56
2020/12/22 04:22:07;;;;;;;9.00;4.00;;;;;;;0.23;61.48;102136.66;1791279;79;21552;-56
2020/12/22 04:24:43;;;;;;;8.68;4.92;;;;;;;0.18;61.58;102137.98;1790119;78;21252;-57
2020/12/22 04:27:12;;;;;;;;;;;;;;;0.19;61.70;102138.41;1799403;79;21176;-56
2020/12/22 04:29:43;;;;;;;13.13;5.12;;;;;;;0.18;61.77;102144.04;1796191;79;20304;-57
2020/12/22 04:32:11;;;;;;;9.65;5.50;;;;;;;0.13;61.87;102133.28;1798586;78;21980;-56
2020/12/22 04:34:38;;;;;;;10.15;4.80;;;;;;;0.13;61.91;102139.30;1795294;79;21599;-56
2020/12/22 04:37:07;;;;;;;11.30;5.42;;;;;;;0.12;61.94;102135.02;1786205;79;21186;-56
2020/12/22 04:39:35;;;;;;;10.78;5.35;;;;;;;0.14;61.86;102135.01;1791015;79;21188;-56
2020/12/22 04:42:02;;;;;;;7.92;4.87;;;;;;;0.15;61.80;102140.17;1792221;79;21175;-56
2020/12/22 04:44:30;;;;;;;11.03;5.80;;;;;;;0.15;61.88;102128.94;1792656;79;21549;-56
2020/12/22 04:46:59;;;;;;;12.03;5.47;;;;;;;0.20;62.00;102135.37;1780824;79;21160;-56
2020/12/22 04:49:28;;;;;;;10.68;4.78;;;;;;;0.20;61.95;102130.20;1791918;79;21189;-56
2020/12/22 04:51:56;;;;;;;9.35;5.40;;;;;;;0.16;62.00;102131.97;1802794;79;21156;-56
2020/12/22 04:54:25;;;;;;;11.25;5.85;;;;;;;0.09;62.13;102127.72;1804809;79;21112;-56
2020/12/22 04:56:53;;;;;;;10.63;5.45;;;;;;;0.08;62.29;102123.40;1800145;79;21171;-56
2020/12/22 04:59:21;;;;;;;8.90;4.28;;;;;;;0.05;62.44;102120.42;1805050;79;21099;-56
2020/12/22 05:01:49;;;;;;;8.60;3.75;;;;;;;0.07;62.54;102122.97;1796992;79;21199;-56
2020/12/22 05:04:17;;;;;;;8.08;4.37;;;;;;;0.10;62.32;102121.66;1802328;79;21188;-56
2020/12/22 05:06:46;;;;;;;7.87;3.72;;;;;;;0.13;62.39;102125.06;1805940;79;21164;-56
2020/12/22 05:09:14;;;;;;;8.13;3.80;;;;;;;0.20;62.28;102121.14;1802545;79;21155;-56
2020/12/22 05:11:42;;;;;;;9.00;4.33;;;;;;;0.23;62.28;102121.97;1812477;79;21208;-55
2020/12/22 05:14:09;;;;;;;6.20;3.58;;;;;;;0.31;62.16;102124.50;1751941;81;21371;-55
2020/12/22 05:16:37;;;;;;;8.30;3.58;;;;;;;0.35;62.03;102130.05;1776853;80;21145;-55
2020/12/22 05:19:04;;;;;;;8.53;3.65;;;;;;;0.35;61.92;102124.47;1761479;80;21170;-55
2020/12/22 05:21:36;;;;;;;7.97;4.22;;;;;;;0.38;61.95;102121.42;1760318;80;21162;-55
2020/12/22 05:24:06;;;;;;;8.15;4.55;;;;;;;0.41;61.85;102122.23;1761699;80;21170;-56
2020/12/22 05:26:34;;;;;;;12.93;5.45;;;;;;;0.44;61.75;102123.51;1762544;79;23490;-55
2020/12/22 05:29:13;;;;;;;8.68;4.75;;;;;;;0.42;61.67;102120.08;1763035;80;21191;-56
2020/12/22 05:31:50;;;;;;;8.50;3.67;;;;;;;0.46;61.78;102116.58;1762034;80;21186;-55
2020/12/22 05:34:19;;;;;;;8.83;4.40;;;;;;;0.49;61.78;102115.25;1762177;80;22748;-57
2020/12/22 05:36:49;;;;;;;9.00;4.75;;;;;;;0.53;61.79;102120.81;1760547;80;21210;-56
2020/12/22 05:39:18;;;;;;;9.55;4.37;;;;;;;0.54;61.86;102121.24;1760080;80;21214;-57
2020/12/22 05:41:49;;;;;;;10.58;5.37;;;;;;;0.57;61.75;102128.55;1760290;80;21242;-56
2020/12/22 05:44:17;;;;;;;9.93;5.42;;;;;;;0.59;61.57;102122.50;1761571;80;21183;-57
2020/12/22 05:46:45;;;;;;;10.20;5.20;;;;;;;0.58;61.59;102125.95;1763172;79;21286;-56
2020/12/22 05:49:17;;;;;;;9.18;4.50;;;;;;;0.58;61.57;102123.36;1753426;81;21183;-56
2020/12/22 05:51:47;;;;;;;10.85;4.72;;;;;;;0.57;61.52;102128.11;1753178;81;21390;-56
2020/12/22 05:54:17;;;;;;;11.20;5.87;;;;;;;0.54;61.42;102122.54;1752512;81;21639;-58
2020/12/22 05:56:45;;;;;;;9.28;4.70;;;;;;;0.48;61.65;102131.66;1738720;81;21452;-55
2020/12/22 05:59:18;;;;;;;10.05;4.83;;;;;;;0.46;61.79;102123.05;1749161;79;21227;-55
2020/12/22 06:01:48;;;;;;;10.75;4.45;;;;;;;0.49;61.80;102122.17;1750719;79;21721;-55
2020/12/22 06:04:18;;;;;;;9.95;4.65;;;;;;;0.52;61.91;102123.41;1750530;79;21750;-55
2020/12/22 06:06:48;;;;;;;11.25;5.45;;;;;;;0.58;61.94;102125.95;1745431;79;21234;-55
2020/12/22 06:09:17;;;;;;;10.58;5.30;;;;;;;0.60;62.01;102119.46;1692328;83;21155;-55
2020/12/22 06:11:47;;;;;;;9.28;4.85;;;;;;;0.65;61.96;102126.75;1744231;81;21203;-55
2020/12/22 06:14:21;;;;;;;10.40;4.78;;;;;;;0.66;62.11;102122.00;1774665;79;21160;-55
2020/12/22 06:16:49;;;;;;;8.73;4.85;;;;;;;0.69;61.90;102128.41;1812555;79;21208;-55
2020/12/22 06:19:17;;;;;;;11.30;5.42;;;;;;;0.69;61.92;102128.00;1799311;79;21987;-55
2020/12/22 06:21:46;;;;;;;14.45;5.70;;;;;;;0.71;61.88;102122.80;1733685;82;21178;-55
2020/12/22 06:24:15;;;;;;;12.10;5.83;;;;;;;0.68;61.92;102121.09;1749866;81;21183;-55
2020/12/22 06:26:44;;;;;;;10.13;5.90;;;;;;;0.69;62.01;102116.75;1756526;81;21800;-55
2020/12/22 06:29:26;;;;;;;9.83;5.22;;;;;;;0.72;61.97;102116.73;1807176;79;21215;-56
2020/12/22 06:31:54;;;;;;;9.38;4.72;;;;;;;0.70;61.97;102113.30;1798035;79;21206;-55
2020/12/22 06:34:26;;;;;;;12.63;5.90;;;;;;;0.68;62.09;102113.31;1799448;79;21205;-55
2020/12/22 06:36:58;;;;;;;10.40;5.65;;;;;;;0.66;62.43;102111.19;1737945;80;21910;-55
2020/12/22 06:39:44;;;;;;;11.35;5.30;;;;;;;0.70;62.45;102102.48;1739018;81;21676;-55
2020/12/22 06:42:33;;;;;;;15.53;5.78;;;;;;;0.72;62.47;102098.17;1747580;81;21223;-56
2020/12/22 06:45:28;;;;;;;10.68;5.30;;;;;;;0.73;62.44;102099.02;1804246;79;21211;-55
2020/12/22 06:47:57;;;;;;;10.85;5.20;;;;;;;0.76;62.55;102093.81;1806074;79;21164;-54
2020/12/22 06:50:40;;;;;;;10.70;4.87;;;;;;;0.76;62.45;102087.75;1799539;79;21182;-53
2020/12/22 06:53:35;;;;;;;10.15;4.90;;;;;;;0.76;62.39;102096.41;1799726;77;21107;-55
2020/12/22 06:56:03;;;;;;;18.15;5.45;;;;;;;0.76;62.48;102091.22;1799326;79;22040;-54
2020/12/22 06:58:47;;;;;;;13.45;7.17;;;;;;;0.82;62.60;102095.02;1796363;79;21672;-55
2020/12/22 07:01:30;;;;;;;9.48;4.58;;;;;;;0.86;62.64;102093.27;1799847;79;21212;-56
2020/12/22 07:04:19;;;;;;;14.23;5.42;;;;;;;0.87;62.63;102091.08;1797168;79;21213;-54
2020/12/22 07:07:02;;;;;;;12.18;4.75;;;;;;;0.84;62.70;102081.63;1803398;79;21199;-56
2020/12/22 07:09:36;;;;;;;10.78;4.62;;;;;;;0.85;62.83;102082.02;1796606;79;22198;-56
2020/12/22 07:12:12;;;;;;;9.10;4.83;;;;;;;0.87;62.74;102082.85;1787483;79;21147;-56
2020/12/22 07:14:46;;;;;;;10.32;5.95;;;;;;;0.89;62.76;102078.95;1801736;79;21231;-57
2020/12/22 07:17:18;;;;;;;13.60;5.80;;;;;;;0.90;62.85;102082.82;1803286;79;21191;-56
2020/12/22 07:19:54;;;;;;;10.85;4.85;;;;;;;0.92;62.77;102079.80;1800257;77;21207;-56
2020/12/22 07:22:24;;;;;;;11.22;4.80;;;;;;;0.93;62.86;102077.60;1796030;77;21204;-56
2020/12/22 07:24:52;;;;;;;9.60;4.97;;;;;;;0.96;62.90;102068.95;1792471;79;21959;-57
2020/12/22 07:27:19;;;;;;;12.53;4.92;;;;;;;1.03;62.97;102067.13;1799990;77;21235;-56
2020/12/22 07:29:47;;;;;;;12.43;5.58;;;;;;;1.07;62.74;102062.31;1804740;79;21564;-54
2020/12/22 07:32:16;;;;;;;10.55;5.53;;;;;;;1.07;62.83;102061.86;1803131;77;21128;-55
2020/12/22 07:34:44;;;;;;;9.83;4.55;;;;;;;1.13;62.78;102056.17;1770177;79;23105;-55
2020/12/22 07:37:12;;;;;;;10.50;4.70;;;;;;;1.15;62.70;102052.69;1801341;78;21693;-55
2020/12/22 07:39:40;;;;;;;9.83;6.00;;;;;;;1.19;62.71;102051.76;1802172;77;22203;-55
2020/12/22 07:42:16;;;;;;;9.35;5.47;;;;;;;1.22;62.81;102051.72;1791394;77;22216;-56
2020/12/22 07:44:47;;;;;;;10.85;5.65;;;;;;;1.26;62.85;102052.53;1799135;79;21207;-57
2020/12/22 07:47:16;;;;;;;11.33;5.33;;;;;;;1.32;62.84;102050.30;1804315;77;21207;-56
2020/12/22 07:49:45;;;;;;;14.83;7.35;;;;;;;1.34;62.74;102051.98;1801602;77;21164;-54
2020/12/22 07:52:16;;;;;;;13.13;7.83;;;;;;;1.37;62.82;102056.28;1790076;77;21179;-55
2020/12/22 07:54:58;;;;;;;12.28;5.62;;;;;;;1.38;62.87;102047.18;1800022;79;21889;-56
2020/12/22 07:57:26;;;;;;;11.35;5.80;;;;;;;1.40;62.93;102045.86;1796950;79;21148;-55
2020/12/22 08:00:07;;;;;;;9.93;4.55;;;;;;;1.42;62.84;102042.80;1798710;79;21235;-56
2020/12/22 08:02:35;;;;;;;9.83;4.42;;;;;;;1.46;62.73;102039.27;1797766;79;21619;-56
2020/12/22 08:05:13;;;;;;;8.63;5.12;;;;;;;1.47;62.73;102044.88;1798839;79;21167;-55
2020/12/22 08:07:43;;;;;;;9.90;4.97;;;;;;;1.48;62.75;102044.86;1807989;79;22137;-55
2020/12/22 08:10:13;;;;;;;14.68;5.03;;;;;;;1.46;62.86;102044.03;1794252;79;21140;-56
2020/12/22 08:12:42;;;;;;;8.38;4.70;;;;;;;1.49;62.89;102036.17;1806559;79;22127;-57
2020/12/22 08:15:11;;;;;;;13.18;4.95;;;;;;;1.52;62.90;102040.93;1804511;79;21211;-56
2020/12/22 08:17:43;;;;;;;10.48;4.75;;;;;;;1.56;62.59;102040.83;1803777;77;21160;-57
2020/12/22 08:20:12;;;;;;;12.25;5.72;;;;;;;1.53;62.44;102044.80;1795282;79;21619;-56
2020/12/22 08:22:42;;;;;;;14.00;6.87;;;;;;;1.53;62.35;102030.95;1800095;79;21618;-55
2020/12/22 08:25:10;;;;;;;16.40;8.18;;;;;;;1.50;62.43;102033.16;1800475;79;21293;-56
2020/12/22 08:27:38;;;;;;;11.97;7.42;;;;;;;1.54;62.64;102032.22;1794647;79;21741;-56
2020/12/22 08:30:21;;;;;;;15.88;7.42;;;;;;;1.56;62.76;102034.34;1796199;79;21631;-56
2020/12/22 08:32:48;;;;;;;11.15;5.85;;;;;;;1.62;62.72;102026.92;1801522;77;21147;-56
2020/12/22 08:35:21;;;;;;;14.60;6.47;;;;;;;1.62;62.46;102017.39;1800615;79;21186;-56
2020/12/22 08:37:49;;;;;;;11.22;6.22;;;;;;;1.63;62.42;102018.23;1803656;79;21242;-56
2020/12/22 08:40:28;;;;;;;14.63;7.85;;;;;;;1.65;62.46;102021.23;1796057;79;21883;-56
2020/12/22 08:42:57;;;;;;;17.98;10.00;;;;;;;1.69;62.48;102018.14;1794667;77;21172;-56
2020/12/22 08:45:30;;;;;;;14.55;8.23;;;;;;;1.67;62.56;102009.08;1798272;79;21693;-55
2020/12/22 08:47:56;;;;;;;13.60;8.05;;;;;;;1.71;62.57;102003.40;1797952;77;21157;-55
2020/12/22 08:50:24;;;;;;;16.65;8.58;;;;;;;1.71;62.60;102002.55;1792954;79;21440;-55
2020/12/22 08:52:52;;;;;;;20.30;11.20;;;;;;;1.70;62.53;102000.83;1800698;79;21825;-56
2020/12/22 08:55:20;;;;;;;18.37;8.60;;;;;;;1.68;62.60;101998.25;1783738;79;21605;-57
2020/12/22 08:57:47;;;;;;;16.02;9.05;;;;;;;1.70;62.49;101996.52;1794902;79;22559;-54
2020/12/22 09:00:17;;;;;;;19.25;10.13;;;;;;;1.70;62.59;101998.23;1799032;79;21176;-56
2020/12/22 09:02:52;;;;;;;20.32;9.50;;;;;;;1.75;62.56;101993.40;1796558;79;22396;-55
2020/12/22 09:05:21;;;;;;;21.80;11.05;;;;;;;1.76;62.49;101992.49;1755482;80;22142;-56
2020/12/22 09:08:17;;;;;;;24.52;9.30;;;;;;;1.80;62.44;101985.09;1751658;81;21228;-55
2020/12/22 09:10:48;;;;;;;20.20;9.93;;;;;;;1.81;62.41;101988.53;1744927;81;21227;-56
2020/12/22 09:13:16;;;;;;;17.15;9.83;;;;;;;1.81;62.43;101980.74;1802249;79;21124;-56
2020/12/22 09:15:54;;;;;;;17.67;9.68;;;;;;;1.79;62.21;101978.17;1786665;79;21235;-56
2020/12/22 09:18:22;;;;;;;22.02;10.98;;;;;;;1.77;62.26;101970.02;1795400;79;21458;-56
2020/12/22 09:21:05;;;;;;;18.65;10.43;;;;;;;1.77;62.36;101973.91;1786644;79;21408;-57
2020/12/22 09:23:44;;;;;;;21.75;10.00;;;;;;;1.72;62.32;101971.39;1794510;79;21148;-54
2020/12/22 09:26:12;;;;;;;18.90;10.68;;;;;;;1.67;62.43;101964.97;1793161;79;21148;-57
2020/12/22 09:28:41;;;;;;;19.95;9.53;;;;;;;1.64;62.63;101957.23;1798972;79;21458;-56
2020/12/22 09:31:10;;;;;;;20.23;10.53;;;;;;;1.66;62.52;101955.91;1793321;79;21509;-58
2020/12/22 09:33:37;;;;;;;21.27;11.63;;;;;;;1.66;62.61;101959.39;1796325;79;21152;-55
2020/12/22 09:36:11;;;;;;;22.65;11.35;;;;;;;1.70;62.51;101954.11;1793069;79;21172;-55
2020/12/22 09:38:40;;;;;;;22.65;16.25;;;;;;;1.67;62.48;101951.99;1791728;79;21195;-55
2020/12/22 09:41:07;;;;;;;26.02;12.30;;;;;;;1.70;62.65;101944.61;1791247;79;21465;-56
2020/12/22 09:43:35;;;;;;;20.45;10.75;;;;;;;1.71;62.65;101943.70;1794585;79;21136;-56
2020/12/22 09:46:04;;;;;;;21.62;12.23;;;;;;;1.73;62.41;101939.38;1786295;79;21387;-55
2020/12/22 09:48:33;;;;;;;22.32;13.08;;;;;;;1.73;62.31;101936.78;1790427;78;21171;-53
2020/12/22 09:51:00;;;;;;;28.83;16.20;;;;;;;1.78;62.17;101937.97;1792990;79;21591;-56
2020/12/22 09:53:28;;;;;;;22.98;13.25;;;;;;;1.80;62.17;101937.48;1800037;79;21198;-56
2020/12/22 09:55:55;;;;;;;19.10;11.75;;;;;;;1.83;62.26;101932.25;1787976;79;21180;-56
2020/12/22 09:58:24;;;;;;;18.77;10.55;;;;;;;1.88;62.12;101925.67;1768056;79;21600;-56
2020/12/22 10:00:51;;;;;;;20.52;10.35;;;;;;;1.91;61.72;101927.77;1783613;79;21172;-56
2020/12/22 10:03:19;;;;;;;17.82;10.13;;;;;;;1.94;61.75;101921.23;1787619;79;21204;-56
2020/12/22 10:05:48;;;;;;;21.20;11.45;;;;;;;1.96;61.70;101915.55;1793499;79;22055;-56
2020/12/22 10:08:17;;;;;;;19.80;9.93;;;;;;;1.99;61.66;101917.25;1792189;79;21738;-57
2020/12/22 10:10:44;;;;;;;17.80;10.00;;;;;;;2.01;61.53;101912.42;1787854;79;21756;-56
2020/12/22 10:13:13;;;;;;;17.27;9.50;;;;;;;2.02;61.30;101907.66;1796808;79;21211;-57
2020/12/22 10:15:40;;;;;;;20.08;10.60;;;;;;;2.03;60.97;101900.70;1787955;79;21148;-57
2020/12/22 10:18:10;;;;;;;19.30;8.78;;;;;;;2.00;61.09;101900.34;1793287;79;21186;-56
2020/12/22 10:20:38;;;;;;;21.57;9.63;;;;;;;2.01;61.26;101896.84;1791167;79;21209;-56
2020/12/22 10:23:06;;;;;;;15.43;8.55;;;;;;;2.06;61.22;101898.05;1793113;79;21215;-56
2020/12/22 10:25:33;;;;;;;22.73;10.18;;;;;;;2.09;61.13;101887.61;1787878;79;21929;-57
2020/12/22 10:28:03;;;;;;;15.93;8.35;;;;;;;2.09;60.95;101882.42;1786913;79;21578;-54
2020/12/22 10:30:32;;;;;;;21.55;9.98;;;;;;;2.08;60.74;101886.34;1792414;79;22130;-53
2020/12/22 10:32:59;;;;;;;20.43;10.28;;;;;;;2.07;60.65;101884.63;1790231;79;21608;-56
2020/12/22 10:35:27;;;;;;;23.30;11.45;;;;;;;2.03;60.79;101892.50;1792887;79;21184;-56
2020/12/22 10:37:54;;;;;;;27.07;12.50;;;;;;;2.06;61.06;101888.97;1791906;79;21191;-55
2020/12/22 10:40:23;;;;;;;23.32;12.50;;;;;;;2.07;61.09;101888.09;1787575;79;21614;-56
2020/12/22 10:42:50;;;;;;;30.55;14.25;;;;;;;2.09;61.09;101881.58;1791591;79;21363;-56
2020/12/22 10:45:18;;;;;;;23.75;10.35;;;;;;;2.08;61.29;101874.20;1788288;79;21172;-56
2020/12/22 10:47:46;;;;;;;23.15;12.23;;;;;;;2.14;61.36;101878.44;1784612;79;21627;-56
2020/12/22 10:50:13;;;;;;;25.45;11.63;;;;;;;2.13;61.22;101878.86;1797810;79;21227;-57
2020/12/22 10:52:41;;;;;;;20.72;10.48;;;;;;;2.09;60.99;101872.03;1767151;80;21190;-57
2020/12/22 10:55:10;;;;;;;21.00;11.18;;;;;;;2.07;60.91;101862.12;1754645;80;21215;-56
2020/12/22 10:57:37;;;;;;;25.05;13.32;;;;;;;2.09;60.81;101862.09;1753268;80;21210;-56
2020/12/22 11:00:06;;;;;;;25.32;11.78;;;;;;;2.09;60.81;101854.31;1756878;80;21107;-56
2020/12/22 11:02:35;;;;;;;19.17;11.15;;;;;;;2.11;60.78;101854.67;1733379;80;21206;-57
2020/12/22 11:05:04;;;;;;;22.80;11.28;;;;;;;2.08;60.74;101854.73;1759317;80;21140;-57
2020/12/22 11:10:27;;;;;;;22.77;12.78;;;;;;;2.13;60.75;101844.25;1865973;75;22762;-56
2020/12/22 11:12:55;;;;;;;22.20;12.23;;;;;;;2.04;60.58;101851.34;1840466;77;21479;-56
2020/12/22 11:15:24;;;;;;;24.18;14.00;;;;;;;1.96;60.96;101847.20;1841032;77;21250;-58
2020/12/22 11:17:52;;;;;;;30.05;15.93;;;;;;;2.00;61.14;101844.53;1833421;77;21670;-57
2020/12/22 11:20:20;;;;;;;26.82;14.43;;;;;;;1.99;61.40;101838.91;1847480;75;21211;-56
2020/12/22 11:22:48;;;;;;;27.37;16.27;;;;;;;1.95;61.37;101842.47;1840261;77;21200;-56
2020/12/22 11:25:16;;;;;;;26.27;14.30;;;;;;;1.90;61.53;101839.53;1842313;75;21223;-55
2020/12/22 11:27:44;;;;;;;26.87;17.05;;;;;;;1.92;61.48;101841.23;1832624;77;21517;-54
2020/12/22 11:30:12;;;;;;;23.32;13.83;;;;;;;1.91;61.59;101840.80;1831845;75;21878;-55
2020/12/22 11:32:40;;;;;;;23.62;14.85;;;;;;;1.93;61.79;101833.83;1847522;75;21649;-55
2020/12/22 11:35:10;;;;;;;22.00;15.53;;;;;;;1.92;61.61;101830.84;1838602;75;21178;-55
2020/12/22 11:37:37;;;;;;;26.37;14.38;;;;;;;1.94;61.61;101831.66;1802892;78;21613;-55
2020/12/22 11:40:05;;;;;;;25.65;15.48;;;;;;;1.92;61.73;101823.06;1787034;78;21515;-55